sensor_id;sensor_type;location;lat;lon;timestamp;temperature;humidity
14783;DHT22;7483;50.498;12.138;2022-09-17T00:01:28;9.80;99.90
14783;DHT22;7483;50.498;12.138;2022-09-17T00:03:58;9.80;99.90
14783;DHT22;7483;50.498;12.138;2022-09-17T00:06:33;9.80;99.90
14783;DHT22;7483;50.498;12.138;2022-09-17T00:09:03;9.80;99.90
14783;DHT22;7483;50.498;12.138;2022-09-17T00:11:33;9.90;99.90
14783;DHT22;7483;50.498;12.138;2022-09-17T00:14:03;9.90;99.90
14783;DHT22;7483;50.498;12.138;2022-09-17T00:16:34;9.80;99.90
14783;DHT22;7483;50.498;12.138;2022-09-17T00:19:04;9.90;99.90
14783;DHT22;7483;50.498;12.138;2022-09-17T00:21:33;9.90;99.90
14783;DHT22;7483;50.498;12.138;2022-09-17T00:24:04;9.90;99.90
14783;DHT22;7483;50.498;12.138;2022-09-17T00:26:33;10.00;99.90
14783;DHT22;7483;50.498;12.138;2022-09-17T00:29:03;10.00;99.90
14783;DHT22;7483;50.498;12.138;2022-09-17T00:31:31;10.10;99.90
14783;DHT22;7483;50.498;12.138;2022-09-17T00:34:01;10.00;99.90
14783;DHT22;7483;50.498;12.138;2022-09-17T00:36:29;10.00;99.90
14783;DHT22;7483;50.498;12.138;2022-09-17T00:38:59;10.00;99.90
14783;DHT22;7483;50.498;12.138;2022-09-17T00:41:29;10.00;99.90
14783;DHT22;7483;50.498;12.138;2022-09-17T00:43:58;9.90;99.90
14783;DHT22;7483;50.498;12.138;2022-09-17T00:46:31;10.00;99.90
14783;DHT22;7483;50.498;12.138;2022-09-17T00:49:02;10.00;99.90
14783;DHT22;7483;50.498;12.138;2022-09-17T00:51:33;10.00;99.90
14783;DHT22;7483;50.498;12.138;2022-09-17T00:54:06;10.00;99.90
14783;DHT22;7483;50.498;12.138;2022-09-17T00:56:38;10.10;99.90
14783;DHT22;7483;50.498;12.138;2022-09-17T00:59:06;10.10;99.90
14783;DHT22;7483;50.498;12.138;2022-09-17T01:01:35;10.10;99.90
14783;DHT22;7483;50.498;12.138;2022-09-17T01:04:03;10.10;99.90
14783;DHT22;7483;50.498;12.138;2022-09-17T01:06:33;10.10;99.90
14783;DHT22;7483;50.498;12.138;2022-09-17T01:09:17;10.10;99.90
14783;DHT22;7483;50.498;12.138;2022-09-17T01:11:59;10.20;99.90
14783;DHT22;7483;50.498;12.138;2022-09-17T01:14:43;10.20;99.90
14783;DHT22;7483;50.498;12.138;2022-09-17T01:17:25;10.20;99.90
14783;DHT22;7483;50.498;12.138;2022-09-17T01:20:10;10.20;99.90
14783;DHT22;7483;50.498;12.138;2022-09-17T01:22:58;10.10;99.90
14783;DHT22;7483;50.498;12.138;2022-09-17T01:25:37;10.20;99.90
14783;DHT22;7483;50.498;12.138;2022-09-17T01:28:21;10.20;99.90
14783;DHT22;7483;50.498;12.138;2022-09-17T01:31:07;10.20;99.90
14783;DHT22;7483;50.498;12.138;2022-09-17T01:33:44;10.20;99.90
14783;DHT22;7483;50.498;12.138;2022-09-17T01:36:25;10.20;99.90
14783;DHT22;7483;50.498;12.138;2022-09-17T01:39:04;10.20;99.90
14783;DHT22;7483;50.498;12.138;2022-09-17T01:41:38;10.20;99.90
14783;DHT22;7483;50.498;12.138;2022-09-17T01:44:12;10.20;99.90
14783;DHT22;7483;50.498;12.138;2022-09-17T01:46:46;10.20;99.90
14783;DHT22;7483;50.498;12.138;2022-09-17T01:49:16;10.30;99.90
14783;DHT22;7483;50.498;12.138;2022-09-17T01:51:48;10.30;99.90
14783;DHT22;7483;50.498;12.138;2022-09-17T01:54:19;10.30;99.90
14783;DHT22;7483;50.498;12.138;2022-09-17T01:56:54;10.30;99.90
14783;DHT22;7483;50.498;12.138;2022-09-17T01:59:28;10.30;99.90
14783;DHT22;7483;50.498;12.138;2022-09-17T02:02:02;10.30;99.90
14783;DHT22;7483;50.498;12.138;2022-09-17T02:04:37;10.30;99.90
14783;DHT22;7483;50.498;12.138;2022-09-17T02:07:10;10.30;99.90
14783;DHT22;7483;50.498;12.138;2022-09-17T02:09:43;10.30;99.90
14783;DHT22;7483;50.498;12.138;2022-09-17T02:12:16;10.30;99.90
14783;DHT22;7483;50.498;12.138;2022-09-17T02:14:48;10.30;99.90
14783;DHT22;7483;50.498;12.138;2022-09-17T02:17:23;10.30;99.90
14783;DHT22;7483;50.498;12.138;2022-09-17T02:19:53;10.40;99.90
14783;DHT22;7483;50.498;12.138;2022-09-17T02:22:26;10.40;99.90
14783;DHT22;7483;50.498;12.138;2022-09-17T02:25:01;10.30;99.90
14783;DHT22;7483;50.498;12.138;2022-09-17T02:27:38;10.40;99.90
14783;DHT22;7483;50.498;12.138;2022-09-17T02:30:09;10.40;99.90
14783;DHT22;7483;50.498;12.138;2022-09-17T02:32:38;10.40;99.90
14783;DHT22;7483;50.498;12.138;2022-09-17T02:35:08;10.30;99.90
14783;DHT22;7483;50.498;12.138;2022-09-17T02:37:36;10.30;99.90
14783;DHT22;7483;50.498;12.138;2022-09-17T02:40:05;10.30;99.90
14783;DHT22;7483;50.498;12.138;2022-09-17T02:42:41;10.30;99.90
14783;DHT22;7483;50.498;12.138;2022-09-17T02:45:15;10.30;99.90
14783;DHT22;7483;50.498;12.138;2022-09-17T02:48:15;10.20;99.90
14783;DHT22;7483;50.498;12.138;2022-09-17T02:51:07;10.20;99.90
14783;DHT22;7483;50.498;12.138;2022-09-17T02:53:45;10.20;99.90
14783;DHT22;7483;50.498;12.138;2022-09-17T02:56:19;10.20;99.90
14783;DHT22;7483;50.498;12.138;2022-09-17T02:58:56;10.20;99.90
14783;DHT22;7483;50.498;12.138;2022-09-17T03:01:30;10.10;99.90
14783;DHT22;7483;50.498;12.138;2022-09-17T03:04:03;10.10;99.90
14783;DHT22;7483;50.498;12.138;2022-09-17T03:06:32;10.10;99.90
14783;DHT22;7483;50.498;12.138;2022-09-17T03:09:00;10.10;99.90
14783;DHT22;7483;50.498;12.138;2022-09-17T03:11:28;10.00;99.90
14783;DHT22;7483;50.498;12.138;2022-09-17T03:13:56;10.10;99.90
14783;DHT22;7483;50.498;12.138;2022-09-17T03:16:24;10.00;99.90
14783;DHT22;7483;50.498;12.138;2022-09-17T03:18:52;10.10;99.90
14783;DHT22;7483;50.498;12.138;2022-09-17T03:21:21;10.10;99.90
14783;DHT22;7483;50.498;12.138;2022-09-17T03:23:49;10.00;99.90
14783;DHT22;7483;50.498;12.138;2022-09-17T03:26:17;10.10;99.90
14783;DHT22;7483;50.498;12.138;2022-09-17T03:28:44;10.10;99.90
14783;DHT22;7483;50.498;12.138;2022-09-17T03:31:12;10.00;99.90
14783;DHT22;7483;50.498;12.138;2022-09-17T03:33:40;10.00;99.90
14783;DHT22;7483;50.498;12.138;2022-09-17T03:36:08;10.00;99.90
14783;DHT22;7483;50.498;12.138;2022-09-17T03:38:37;9.90;99.90
14783;DHT22;7483;50.498;12.138;2022-09-17T03:41:06;9.90;99.90
14783;DHT22;7483;50.498;12.138;2022-09-17T03:43:33;9.90;99.90
14783;DHT22;7483;50.498;12.138;2022-09-17T03:46:02;9.90;99.90
14783;DHT22;7483;50.498;12.138;2022-09-17T03:48:30;9.80;99.90
14783;DHT22;7483;50.498;12.138;2022-09-17T03:51:00;9.80;99.90
14783;DHT22;7483;50.498;12.138;2022-09-17T03:53:28;9.80;99.90
14783;DHT22;7483;50.498;12.138;2022-09-17T03:55:59;9.80;99.90
14783;DHT22;7483;50.498;12.138;2022-09-17T03:58:27;9.80;99.90
14783;DHT22;7483;50.498;12.138;2022-09-17T04:00:55;9.70;99.90
14783;DHT22;7483;50.498;12.138;2022-09-17T04:03:23;9.70;99.90
14783;DHT22;7483;50.498;12.138;2022-09-17T04:05:51;9.70;99.90
14783;DHT22;7483;50.498;12.138;2022-09-17T04:08:19;9.70;99.90
14783;DHT22;7483;50.498;12.138;2022-09-17T04:10:48;9.70;99.90
14783;DHT22;7483;50.498;12.138;2022-09-17T04:13:17;9.70;99.90
14783;DHT22;7483;50.498;12.138;2022-09-17T04:15:45;9.60;99.90
14783;DHT22;7483;50.498;12.138;2022-09-17T04:18:14;9.70;99.90
14783;DHT22;7483;50.498;12.138;2022-09-17T04:20:42;9.70;99.90
14783;DHT22;7483;50.498;12.138;2022-09-17T04:23:11;9.70;99.90
14783;DHT22;7483;50.498;12.138;2022-09-17T04:25:39;9.60;99.90
14783;DHT22;7483;50.498;12.138;2022-09-17T04:28:07;9.60;99.90
14783;DHT22;7483;50.498;12.138;2022-09-17T04:30:36;9.60;99.90
14783;DHT22;7483;50.498;12.138;2022-09-17T04:33:04;9.70;99.90
14783;DHT22;7483;50.498;12.138;2022-09-17T04:35:32;9.60;99.90
14783;DHT22;7483;50.498;12.138;2022-09-17T04:38:00;9.70;99.90
14783;DHT22;7483;50.498;12.138;2022-09-17T04:40:28;9.70;99.90
14783;DHT22;7483;50.498;12.138;2022-09-17T04:42:57;9.70;99.90
14783;DHT22;7483;50.498;12.138;2022-09-17T04:45:29;9.60;99.90
14783;DHT22;7483;50.498;12.138;2022-09-17T04:48:01;9.70;99.90
14783;DHT22;7483;50.498;12.138;2022-09-17T04:50:29;9.60;99.90
14783;DHT22;7483;50.498;12.138;2022-09-17T04:52:57;9.60;99.90
14783;DHT22;7483;50.498;12.138;2022-09-17T04:55:25;9.60;99.90
14783;DHT22;7483;50.498;12.138;2022-09-17T04:57:53;9.50;99.90
14783;DHT22;7483;50.498;12.138;2022-09-17T05:00:22;9.60;99.90
14783;DHT22;7483;50.498;12.138;2022-09-17T05:02:52;9.70;99.90
14783;DHT22;7483;50.498;12.138;2022-09-17T05:05:23;9.60;99.90
14783;DHT22;7483;50.498;12.138;2022-09-17T05:07:51;9.60;99.90
14783;DHT22;7483;50.498;12.138;2022-09-17T05:10:20;9.60;99.90
14783;DHT22;7483;50.498;12.138;2022-09-17T05:12:49;9.60;99.90
14783;DHT22;7483;50.498;12.138;2022-09-17T05:15:17;9.60;99.90
14783;DHT22;7483;50.498;12.138;2022-09-17T05:17:45;9.60;99.90
14783;DHT22;7483;50.498;12.138;2022-09-17T05:20:15;9.50;99.90
14783;DHT22;7483;50.498;12.138;2022-09-17T05:22:45;9.50;99.90
14783;DHT22;7483;50.498;12.138;2022-09-17T05:25:15;9.40;99.90
14783;DHT22;7483;50.498;12.138;2022-09-17T05:27:43;9.40;99.90
14783;DHT22;7483;50.498;12.138;2022-09-17T05:30:11;9.40;99.90
14783;DHT22;7483;50.498;12.138;2022-09-17T05:32:39;9.50;99.90
14783;DHT22;7483;50.498;12.138;2022-09-17T05:35:08;9.40;99.90
14783;DHT22;7483;50.498;12.138;2022-09-17T05:37:36;9.50;99.90
14783;DHT22;7483;50.498;12.138;2022-09-17T05:40:07;9.50;99.90
14783;DHT22;7483;50.498;12.138;2022-09-17T05:42:36;9.50;99.90
14783;DHT22;7483;50.498;12.138;2022-09-17T05:45:05;9.50;99.90
14783;DHT22;7483;50.498;12.138;2022-09-17T05:47:33;9.50;99.90
14783;DHT22;7483;50.498;12.138;2022-09-17T05:50:02;9.50;99.90
14783;DHT22;7483;50.498;12.138;2022-09-17T05:52:30;9.50;99.90
14783;DHT22;7483;50.498;12.138;2022-09-17T05:54:58;9.50;99.90
14783;DHT22;7483;50.498;12.138;2022-09-17T05:57:28;9.60;99.90
14783;DHT22;7483;50.498;12.138;2022-09-17T05:59:56;9.70;99.90
14783;DHT22;7483;50.498;12.138;2022-09-17T06:02:24;9.60;99.90
14783;DHT22;7483;50.498;12.138;2022-09-17T06:04:52;9.60;99.90
14783;DHT22;7483;50.498;12.138;2022-09-17T06:07:20;9.70;99.90
14783;DHT22;7483;50.498;12.138;2022-09-17T06:09:48;9.70;99.90
14783;DHT22;7483;50.498;12.138;2022-09-17T06:12:16;9.70;99.90
14783;DHT22;7483;50.498;12.138;2022-09-17T06:14:45;9.70;99.90
14783;DHT22;7483;50.498;12.138;2022-09-17T06:17:13;9.70;99.90
14783;DHT22;7483;50.498;12.138;2022-09-17T06:19:47;9.70;99.90
14783;DHT22;7483;50.498;12.138;2022-09-17T06:22:17;9.70;99.90
14783;DHT22;7483;50.498;12.138;2022-09-17T06:24:45;9.80;99.90
14783;DHT22;7483;50.498;12.138;2022-09-17T06:27:13;9.80;99.90
14783;DHT22;7483;50.498;12.138;2022-09-17T06:29:41;9.80;99.90
14783;DHT22;7483;50.498;12.138;2022-09-17T06:32:10;9.90;99.90
14783;DHT22;7483;50.498;12.138;2022-09-17T06:34:41;9.90;99.90
14783;DHT22;7483;50.498;12.138;2022-09-17T06:37:09;10.00;99.90
14783;DHT22;7483;50.498;12.138;2022-09-17T06:39:37;10.10;99.90
14783;DHT22;7483;50.498;12.138;2022-09-17T06:42:05;10.10;99.90
14783;DHT22;7483;50.498;12.138;2022-09-17T06:44:33;10.20;99.90
14783;DHT22;7483;50.498;12.138;2022-09-17T06:47:01;10.20;99.90
14783;DHT22;7483;50.498;12.138;2022-09-17T06:49:30;10.30;99.90
14783;DHT22;7483;50.498;12.138;2022-09-17T06:51:58;10.30;99.90
14783;DHT22;7483;50.498;12.138;2022-09-17T06:54:26;10.30;99.90
14783;DHT22;7483;50.498;12.138;2022-09-17T06:56:53;10.40;99.90
14783;DHT22;7483;50.498;12.138;2022-09-17T06:59:21;10.40;99.90
14783;DHT22;7483;50.498;12.138;2022-09-17T07:01:50;10.50;99.90
14783;DHT22;7483;50.498;12.138;2022-09-17T07:04:17;10.50;99.90
14783;DHT22;7483;50.498;12.138;2022-09-17T07:06:46;10.60;99.90
14783;DHT22;7483;50.498;12.138;2022-09-17T07:09:14;10.50;99.90
14783;DHT22;7483;50.498;12.138;2022-09-17T07:11:43;10.50;99.90
14783;DHT22;7483;50.498;12.138;2022-09-17T07:14:11;10.50;99.90
14783;DHT22;7483;50.498;12.138;2022-09-17T07:16:39;10.60;99.90
14783;DHT22;7483;50.498;12.138;2022-09-17T07:19:07;10.60;99.90
14783;DHT22;7483;50.498;12.138;2022-09-17T07:21:36;10.60;99.90
14783;DHT22;7483;50.498;12.138;2022-09-17T07:24:06;10.70;99.90
14783;DHT22;7483;50.498;12.138;2022-09-17T07:26:33;10.60;99.90
14783;DHT22;7483;50.498;12.138;2022-09-17T07:29:01;10.70;99.90
14783;DHT22;7483;50.498;12.138;2022-09-17T07:31:29;10.70;99.90
14783;DHT22;7483;50.498;12.138;2022-09-17T07:33:58;10.70;99.90
14783;DHT22;7483;50.498;12.138;2022-09-17T07:36:27;10.70;99.90
14783;DHT22;7483;50.498;12.138;2022-09-17T07:38:55;10.80;99.90
14783;DHT22;7483;50.498;12.138;2022-09-17T07:41:24;10.80;99.90
14783;DHT22;7483;50.498;12.138;2022-09-17T07:43:52;10.80;99.90
14783;DHT22;7483;50.498;12.138;2022-09-17T07:46:20;10.80;99.90
14783;DHT22;7483;50.498;12.138;2022-09-17T07:48:49;11.00;99.90
14783;DHT22;7483;50.498;12.138;2022-09-17T07:51:18;11.00;99.90
14783;DHT22;7483;50.498;12.138;2022-09-17T07:53:49;10.90;99.90
14783;DHT22;7483;50.498;12.138;2022-09-17T07:56:18;11.00;99.90
14783;DHT22;7483;50.498;12.138;2022-09-17T07:58:47;11.10;99.90
14783;DHT22;7483;50.498;12.138;2022-09-17T08:01:16;11.00;99.90
14783;DHT22;7483;50.498;12.138;2022-09-17T08:03:48;11.00;99.90
14783;DHT22;7483;50.498;12.138;2022-09-17T08:06:18;11.00;99.90
14783;DHT22;7483;50.498;12.138;2022-09-17T08:08:46;11.10;99.90
14783;DHT22;7483;50.498;12.138;2022-09-17T08:11:16;11.20;99.90
14783;DHT22;7483;50.498;12.138;2022-09-17T08:14:05;11.10;99.90
14783;DHT22;7483;50.498;12.138;2022-09-17T08:16:33;11.20;99.90
14783;DHT22;7483;50.498;12.138;2022-09-17T08:19:01;11.30;99.90
14783;DHT22;7483;50.498;12.138;2022-09-17T08:21:29;11.30;99.90
14783;DHT22;7483;50.498;12.138;2022-09-17T08:23:57;11.40;99.90
14783;DHT22;7483;50.498;12.138;2022-09-17T08:26:25;11.50;99.90
14783;DHT22;7483;50.498;12.138;2022-09-17T08:28:54;11.50;99.90
14783;DHT22;7483;50.498;12.138;2022-09-17T08:31:25;11.50;99.90
14783;DHT22;7483;50.498;12.138;2022-09-17T08:33:53;11.60;99.90
14783;DHT22;7483;50.498;12.138;2022-09-17T08:36:21;11.60;99.90
14783;DHT22;7483;50.498;12.138;2022-09-17T08:38:52;11.50;99.90
14783;DHT22;7483;50.498;12.138;2022-09-17T08:41:25;11.60;99.90
14783;DHT22;7483;50.498;12.138;2022-09-17T08:44:10;11.50;99.90
14783;DHT22;7483;50.498;12.138;2022-09-17T08:46:47;11.60;99.90
14783;DHT22;7483;50.498;12.138;2022-09-17T08:49:24;11.60;99.90
14783;DHT22;7483;50.498;12.138;2022-09-17T08:52:14;11.60;99.90
14783;DHT22;7483;50.498;12.138;2022-09-17T08:54:47;11.70;99.90
14783;DHT22;7483;50.498;12.138;2022-09-17T08:57:20;11.80;99.90
14783;DHT22;7483;50.498;12.138;2022-09-17T08:59:57;11.80;99.90
14783;DHT22;7483;50.498;12.138;2022-09-17T09:02:42;11.80;99.90
14783;DHT22;7483;50.498;12.138;2022-09-17T09:05:14;11.90;99.90
14783;DHT22;7483;50.498;12.138;2022-09-17T09:07:47;12.00;99.90
14783;DHT22;7483;50.498;12.138;2022-09-17T09:10:20;11.90;99.90
14783;DHT22;7483;50.498;12.138;2022-09-17T09:12:50;12.00;99.90
14783;DHT22;7483;50.498;12.138;2022-09-17T09:15:31;12.00;99.90
14783;DHT22;7483;50.498;12.138;2022-09-17T09:18:10;12.20;99.90
14783;DHT22;7483;50.498;12.138;2022-09-17T09:20:45;12.20;99.90
14783;DHT22;7483;50.498;12.138;2022-09-17T09:23:18;12.30;99.90
14783;DHT22;7483;50.498;12.138;2022-09-17T09:25:53;12.30;99.90
14783;DHT22;7483;50.498;12.138;2022-09-17T09:28:34;12.40;99.90
14783;DHT22;7483;50.498;12.138;2022-09-17T09:31:19;12.50;99.90
14783;DHT22;7483;50.498;12.138;2022-09-17T09:33:51;12.50;99.90
14783;DHT22;7483;50.498;12.138;2022-09-17T09:36:19;12.50;99.90
14783;DHT22;7483;50.498;12.138;2022-09-17T09:38:52;12.50;99.90
14783;DHT22;7483;50.498;12.138;2022-09-17T09:41:26;12.50;99.90
14783;DHT22;7483;50.498;12.138;2022-09-17T09:44:00;12.40;99.90
14783;DHT22;7483;50.498;12.138;2022-09-17T09:49:43;12.30;99.90
14783;DHT22;7483;50.498;12.138;2022-09-17T09:52:24;12.30;99.90
14783;DHT22;7483;50.498;12.138;2022-09-17T09:55:09;12.40;99.90
14783;DHT22;7483;50.498;12.138;2022-09-17T09:57:44;12.50;99.90
14783;DHT22;7483;50.498;12.138;2022-09-17T10:00:25;12.70;99.90
14783;DHT22;7483;50.498;12.138;2022-09-17T10:02:59;12.90;99.90
14783;DHT22;7483;50.498;12.138;2022-09-17T10:05:30;12.80;99.90
14783;DHT22;7483;50.498;12.138;2022-09-17T10:07:58;12.80;99.90
14783;DHT22;7483;50.498;12.138;2022-09-17T10:10:25;12.90;99.90
14783;DHT22;7483;50.498;12.138;2022-09-17T10:13:06;12.90;99.90
14783;DHT22;7483;50.498;12.138;2022-09-17T10:15:37;13.00;99.90
14783;DHT22;7483;50.498;12.138;2022-09-17T10:18:15;12.90;99.90
14783;DHT22;7483;50.498;12.138;2022-09-17T10:20:52;13.00;99.90
14783;DHT22;7483;50.498;12.138;2022-09-17T10:23:22;12.90;99.90
14783;DHT22;7483;50.498;12.138;2022-09-17T10:25:51;12.90;99.90
14783;DHT22;7483;50.498;12.138;2022-09-17T10:28:30;12.80;99.90
14783;DHT22;7483;50.498;12.138;2022-09-17T10:31:01;12.90;99.90
14783;DHT22;7483;50.498;12.138;2022-09-17T10:33:36;13.00;99.90
14783;DHT22;7483;50.498;12.138;2022-09-17T10:36:07;13.00;99.90
14783;DHT22;7483;50.498;12.138;2022-09-17T10:38:37;12.80;99.90
14783;DHT22;7483;50.498;12.138;2022-09-17T10:41:11;12.80;99.90
14783;DHT22;7483;50.498;12.138;2022-09-17T10:43:40;12.80;99.90
14783;DHT22;7483;50.498;12.138;2022-09-17T10:46:11;12.80;99.90
14783;DHT22;7483;50.498;12.138;2022-09-17T10:48:43;12.80;99.90
14783;DHT22;7483;50.498;12.138;2022-09-17T10:51:21;13.10;99.90
14783;DHT22;7483;50.498;12.138;2022-09-17T10:54:31;13.20;99.90
14783;DHT22;7483;50.498;12.138;2022-09-17T10:57:12;13.50;99.90
14783;DHT22;7483;50.498;12.138;2022-09-17T11:00:02;13.70;99.90
14783;DHT22;7483;50.498;12.138;2022-09-17T11:02:53;13.70;99.90
14783;DHT22;7483;50.498;12.138;2022-09-17T11:05:46;13.90;99.90
14783;DHT22;7483;50.498;12.138;2022-09-17T11:08:24;13.90;99.90
14783;DHT22;7483;50.498;12.138;2022-09-17T11:11:02;14.00;99.90
14783;DHT22;7483;50.498;12.138;2022-09-17T11:13:37;14.30;99.90
14783;DHT22;7483;50.498;12.138;2022-09-17T11:16:13;14.50;99.90
14783;DHT22;7483;50.498;12.138;2022-09-17T11:18:49;14.70;99.90
14783;DHT22;7483;50.498;12.138;2022-09-17T11:21:38;14.80;99.90
14783;DHT22;7483;50.498;12.138;2022-09-17T11:24:38;14.90;99.90
14783;DHT22;7483;50.498;12.138;2022-09-17T11:27:24;14.90;99.90
14783;DHT22;7483;50.498;12.138;2022-09-17T11:30:03;14.50;99.90
14783;DHT22;7483;50.498;12.138;2022-09-17T11:32:39;14.30;99.90
14783;DHT22;7483;50.498;12.138;2022-09-17T11:35:10;14.10;99.90
14783;DHT22;7483;50.498;12.138;2022-09-17T11:37:41;13.70;99.90
14783;DHT22;7483;50.498;12.138;2022-09-17T11:40:20;13.60;99.90
14783;DHT22;7483;50.498;12.138;2022-09-17T11:42:53;13.50;99.90
14783;DHT22;7483;50.498;12.138;2022-09-17T11:45:25;13.50;99.90
14783;DHT22;7483;50.498;12.138;2022-09-17T11:47:58;13.60;99.90
14783;DHT22;7483;50.498;12.138;2022-09-17T11:50:31;13.90;99.90
14783;DHT22;7483;50.498;12.138;2022-09-17T11:53:08;14.30;99.90
14783;DHT22;7483;50.498;12.138;2022-09-17T11:55:45;14.30;99.90
14783;DHT22;7483;50.498;12.138;2022-09-17T11:58:18;14.40;99.90
14783;DHT22;7483;50.498;12.138;2022-09-17T12:00:52;14.80;99.90
14783;DHT22;7483;50.498;12.138;2022-09-17T12:03:24;14.90;99.90
14783;DHT22;7483;50.498;12.138;2022-09-17T12:05:57;14.90;99.90
14783;DHT22;7483;50.498;12.138;2022-09-17T12:08:31;15.30;99.90
14783;DHT22;7483;50.498;12.138;2022-09-17T12:11:08;15.70;99.90
14783;DHT22;7483;50.498;12.138;2022-09-17T12:13:40;15.70;99.90
14783;DHT22;7483;50.498;12.138;2022-09-17T12:16:15;16.10;99.90
14783;DHT22;7483;50.498;12.138;2022-09-17T12:18:52;16.40;99.90
14783;DHT22;7483;50.498;12.138;2022-09-17T12:21:23;16.80;99.90
14783;DHT22;7483;50.498;12.138;2022-09-17T12:23:56;17.10;99.90
14783;DHT22;7483;50.498;12.138;2022-09-17T12:26:33;17.10;99.90
14783;DHT22;7483;50.498;12.138;2022-09-17T12:29:15;17.30;99.90
14783;DHT22;7483;50.498;12.138;2022-09-17T12:31:52;17.00;99.90
14783;DHT22;7483;50.498;12.138;2022-09-17T12:34:31;16.60;99.90
14783;DHT22;7483;50.498;12.138;2022-09-17T12:37:06;16.70;99.90
14783;DHT22;7483;50.498;12.138;2022-09-17T12:39:54;16.40;99.90
14783;DHT22;7483;50.498;12.138;2022-09-17T12:42:40;16.00;99.90
14783;DHT22;7483;50.498;12.138;2022-09-17T12:48:25;15.90;99.90
14783;DHT22;7483;50.498;12.138;2022-09-17T12:51:05;15.60;99.90
14783;DHT22;7483;50.498;12.138;2022-09-17T12:53:42;15.10;99.90
14783;DHT22;7483;50.498;12.138;2022-09-17T12:56:21;15.20;99.90
14783;DHT22;7483;50.498;12.138;2022-09-17T12:59:04;15.40;99.90
14783;DHT22;7483;50.498;12.138;2022-09-17T13:01:38;15.70;99.90
14783;DHT22;7483;50.498;12.138;2022-09-17T13:04:17;15.90;99.90
14783;DHT22;7483;50.498;12.138;2022-09-17T13:10:31;15.70;99.90
14783;DHT22;7483;50.498;12.138;2022-09-17T13:13:09;15.10;99.90
14783;DHT22;7483;50.498;12.138;2022-09-17T13:15:56;14.00;99.90
14783;DHT22;7483;50.498;12.138;2022-09-17T13:18:32;13.50;99.90
14783;DHT22;7483;50.498;12.138;2022-09-17T13:21:10;13.60;99.90
14783;DHT22;7483;50.498;12.138;2022-09-17T13:23:41;13.70;99.90
14783;DHT22;7483;50.498;12.138;2022-09-17T13:26:11;14.00;99.90
14783;DHT22;7483;50.498;12.138;2022-09-17T13:28:44;14.20;99.90
14783;DHT22;7483;50.498;12.138;2022-09-17T13:31:20;14.40;99.90
14783;DHT22;7483;50.498;12.138;2022-09-17T13:33:56;14.70;99.90
14783;DHT22;7483;50.498;12.138;2022-09-17T13:36:42;14.60;99.90
14783;DHT22;7483;50.498;12.138;2022-09-17T13:39:38;14.30;99.90
14783;DHT22;7483;50.498;12.138;2022-09-17T13:42:10;13.90;99.90
14783;DHT22;7483;50.498;12.138;2022-09-17T13:44:42;13.60;99.90
14783;DHT22;7483;50.498;12.138;2022-09-17T13:47:19;13.70;99.90
14783;DHT22;7483;50.498;12.138;2022-09-17T13:49:51;13.70;99.90
14783;DHT22;7483;50.498;12.138;2022-09-17T13:52:32;13.40;99.90
14783;DHT22;7483;50.498;12.138;2022-09-17T13:55:01;13.60;99.90
14783;DHT22;7483;50.498;12.138;2022-09-17T13:57:31;13.40;99.90
14783;DHT22;7483;50.498;12.138;2022-09-17T14:00:01;13.50;99.90
14783;DHT22;7483;50.498;12.138;2022-09-17T14:02:38;13.40;99.90
14783;DHT22;7483;50.498;12.138;2022-09-17T14:05:35;13.50;99.90
14783;DHT22;7483;50.498;12.138;2022-09-17T14:08:22;13.60;99.90
14783;DHT22;7483;50.498;12.138;2022-09-17T14:10:55;13.90;99.90
14783;DHT22;7483;50.498;12.138;2022-09-17T14:13:26;14.10;99.90
14783;DHT22;7483;50.498;12.138;2022-09-17T14:15:58;14.30;99.90
14783;DHT22;7483;50.498;12.138;2022-09-17T14:18:41;14.40;99.90
14783;DHT22;7483;50.498;12.138;2022-09-17T14:21:23;14.50;99.90
14783;DHT22;7483;50.498;12.138;2022-09-17T14:23:58;14.50;99.90
14783;DHT22;7483;50.498;12.138;2022-09-17T14:26:47;14.40;99.90
14783;DHT22;7483;50.498;12.138;2022-09-17T14:29:26;14.70;99.90
14783;DHT22;7483;50.498;12.138;2022-09-17T14:31:57;14.70;99.90
14783;DHT22;7483;50.498;12.138;2022-09-17T14:34:27;14.90;99.90
14783;DHT22;7483;50.498;12.138;2022-09-17T14:36:55;15.00;99.90
14783;DHT22;7483;50.498;12.138;2022-09-17T14:39:26;15.00;99.90
14783;DHT22;7483;50.498;12.138;2022-09-17T14:41:57;15.10;99.90
14783;DHT22;7483;50.498;12.138;2022-09-17T14:44:27;14.90;99.90
14783;DHT22;7483;50.498;12.138;2022-09-17T14:47:01;14.80;99.90
14783;DHT22;7483;50.498;12.138;2022-09-17T14:49:32;14.50;99.90
14783;DHT22;7483;50.498;12.138;2022-09-17T14:52:01;14.30;99.90
14783;DHT22;7483;50.498;12.138;2022-09-17T14:54:31;14.20;99.90
14783;DHT22;7483;50.498;12.138;2022-09-17T14:57:03;14.10;99.90
14783;DHT22;7483;50.498;12.138;2022-09-17T14:59:46;14.10;99.90
14783;DHT22;7483;50.498;12.138;2022-09-17T15:02:26;14.00;99.90
14783;DHT22;7483;50.498;12.138;2022-09-17T15:04:57;14.00;99.90
14783;DHT22;7483;50.498;12.138;2022-09-17T15:07:26;13.90;99.90
14783;DHT22;7483;50.498;12.138;2022-09-17T15:10:05;13.80;99.90
14783;DHT22;7483;50.498;12.138;2022-09-17T15:12:34;13.60;99.90
14783;DHT22;7483;50.498;12.138;2022-09-17T15:15:02;13.60;99.90
14783;DHT22;7483;50.498;12.138;2022-09-17T15:17:30;13.50;99.90
14783;DHT22;7483;50.498;12.138;2022-09-17T15:20:02;13.50;99.90
14783;DHT22;7483;50.498;12.138;2022-09-17T15:22:33;13.40;99.90
14783;DHT22;7483;50.498;12.138;2022-09-17T15:25:07;13.40;99.90
14783;DHT22;7483;50.498;12.138;2022-09-17T15:27:37;13.60;99.90
14783;DHT22;7483;50.498;12.138;2022-09-17T15:30:12;13.60;99.90
14783;DHT22;7483;50.498;12.138;2022-09-17T15:32:42;13.50;99.90
14783;DHT22;7483;50.498;12.138;2022-09-17T15:35:19;13.50;99.90
14783;DHT22;7483;50.498;12.138;2022-09-17T15:37:49;13.30;99.90
14783;DHT22;7483;50.498;12.138;2022-09-17T15:40:38;13.30;99.90
14783;DHT22;7483;50.498;12.138;2022-09-17T15:43:15;13.30;99.90
14783;DHT22;7483;50.498;12.138;2022-09-17T15:45:44;13.40;99.90
14783;DHT22;7483;50.498;12.138;2022-09-17T15:48:23;13.40;99.90
14783;DHT22;7483;50.498;12.138;2022-09-17T15:51:03;13.40;99.90
14783;DHT22;7483;50.498;12.138;2022-09-17T15:53:33;13.40;99.90
14783;DHT22;7483;50.498;12.138;2022-09-17T15:56:05;13.30;99.90
14783;DHT22;7483;50.498;12.138;2022-09-17T15:58:36;13.20;99.90
14783;DHT22;7483;50.498;12.138;2022-09-17T16:04:25;13.10;99.90
14783;DHT22;7483;50.498;12.138;2022-09-17T16:07:25;13.10;99.90
14783;DHT22;7483;50.498;12.138;2022-09-17T16:09:54;13.20;99.90
14783;DHT22;7483;50.498;12.138;2022-09-17T16:12:26;13.10;99.90
14783;DHT22;7483;50.498;12.138;2022-09-17T16:14:56;13.00;99.90
14783;DHT22;7483;50.498;12.138;2022-09-17T16:17:27;13.10;99.90
14783;DHT22;7483;50.498;12.138;2022-09-17T16:19:58;13.00;99.90
14783;DHT22;7483;50.498;12.138;2022-09-17T16:22:32;13.00;99.90
14783;DHT22;7483;50.498;12.138;2022-09-17T16:25:00;12.90;99.90